sensor_id;sensor_type;location;lat;lon;timestamp;P1;durP1;ratioP1;P2;durP2;ratioP2
69856;SDS011;57147;53.582;10.112;2023-06-04T00:04:57;6.28;;;4.78;;
69856;SDS011;57147;53.582;10.112;2023-06-04T00:10:00;6.13;;;4.45;;
69856;SDS011;57147;53.582;10.112;2023-06-04T00:15:01;7.55;;;5.80;;
69856;SDS011;57147;53.582;10.112;2023-06-04T00:20:02;6.00;;;4.35;;
69856;SDS011;57147;53.582;10.112;2023-06-04T00:25:06;7.22;;;5.13;;
69856;SDS011;57147;53.582;10.112;2023-06-04T00:30:07;5.93;;;5.07;;
69856;SDS011;57147;53.582;10.112;2023-06-04T00:35:08;6.57;;;4.97;;
69856;SDS011;57147;53.582;10.112;2023-06-04T00:40:12;5.38;;;4.30;;
69856;SDS011;57147;53.582;10.112;2023-06-04T00:45:13;7.22;;;5.05;;
69856;SDS011;57147;53.582;10.112;2023-06-04T00:50:13;5.65;;;4.50;;
69856;SDS011;57147;53.582;10.112;2023-06-04T00:55:17;4.88;;;3.08;;
69856;SDS011;57147;53.582;10.112;2023-06-04T01:00:18;5.22;;;3.83;;
69856;SDS011;57147;53.582;10.112;2023-06-04T01:05:20;5.35;;;4.85;;
69856;SDS011;57147;53.582;10.112;2023-06-04T01:10:28;5.75;;;4.55;;
69856;SDS011;57147;53.582;10.112;2023-06-04T01:15:29;6.03;;;4.13;;
69856;SDS011;57147;53.582;10.112;2023-06-04T01:20:32;4.93;;;4.22;;
69856;SDS011;57147;53.582;10.112;2023-06-04T01:25:39;5.32;;;3.50;;
69856;SDS011;57147;53.582;10.112;2023-06-04T01:30:43;6.43;;;4.63;;
69856;SDS011;57147;53.582;10.112;2023-06-04T01:35:45;6.70;;;5.20;;
69856;SDS011;57147;53.582;10.112;2023-06-04T01:40:48;5.40;;;3.97;;
69856;SDS011;57147;53.582;10.112;2023-06-04T01:45:49;5.07;;;4.00;;
69856;SDS011;57147;53.582;10.112;2023-06-04T01:50:50;4.90;;;4.22;;
69856;SDS011;57147;53.582;10.112;2023-06-04T01:55:53;8.65;;;7.03;;
69856;SDS011;57147;53.582;10.112;2023-06-04T02:00:53;6.43;;;4.53;;
69856;SDS011;57147;53.582;10.112;2023-06-04T02:05:54;8.13;;;5.20;;
69856;SDS011;57147;53.582;10.112;2023-06-04T02:10:57;4.80;;;4.28;;
69856;SDS011;57147;53.582;10.112;2023-06-04T02:15:58;5.72;;;3.38;;
69856;SDS011;57147;53.582;10.112;2023-06-04T02:20:58;4.93;;;3.88;;
69856;SDS011;57147;53.582;10.112;2023-06-04T02:26:02;4.90;;;3.22;;
69856;SDS011;57147;53.582;10.112;2023-06-04T02:31:02;6.05;;;4.60;;
69856;SDS011;57147;53.582;10.112;2023-06-04T02:36:03;5.47;;;4.03;;
69856;SDS011;57147;53.582;10.112;2023-06-04T02:41:07;4.93;;;4.10;;
69856;SDS011;57147;53.582;10.112;2023-06-04T02:46:07;6.38;;;3.50;;
69856;SDS011;57147;53.582;10.112;2023-06-04T02:51:08;5.28;;;3.85;;
69856;SDS011;57147;53.582;10.112;2023-06-04T02:56:11;4.05;;;3.65;;
69856;SDS011;57147;53.582;10.112;2023-06-04T03:01:16;3.80;;;3.35;;
69856;SDS011;57147;53.582;10.112;2023-06-04T03:06:18;4.40;;;3.95;;
69856;SDS011;57147;53.582;10.112;2023-06-04T03:11:22;4.90;;;2.78;;
69856;SDS011;57147;53.582;10.112;2023-06-04T03:16:22;4.45;;;4.03;;
69856;SDS011;57147;53.582;10.112;2023-06-04T03:21:23;6.03;;;4.13;;
69856;SDS011;57147;53.582;10.112;2023-06-04T03:26:26;4.10;;;3.40;;
69856;SDS011;57147;53.582;10.112;2023-06-04T03:31:27;5.05;;;3.25;;
69856;SDS011;57147;53.582;10.112;2023-06-04T03:36:27;6.10;;;3.25;;
69856;SDS011;57147;53.582;10.112;2023-06-04T03:41:32;4.57;;;2.03;;
69856;SDS011;57147;53.582;10.112;2023-06-04T03:46:33;4.40;;;3.55;;
69856;SDS011;57147;53.582;10.112;2023-06-04T03:51:33;4.28;;;3.88;;
69856;SDS011;57147;53.582;10.112;2023-06-04T03:56:36;5.40;;;4.95;;
69856;SDS011;57147;53.582;10.112;2023-06-04T04:01:37;4.47;;;4.05;;
69856;SDS011;57147;53.582;10.112;2023-06-04T04:06:38;4.53;;;2.78;;
69856;SDS011;57147;53.582;10.112;2023-06-04T04:11:41;5.50;;;3.38;;
69856;SDS011;57147;53.582;10.112;2023-06-04T04:16:41;4.13;;;3.00;;
69856;SDS011;57147;53.582;10.112;2023-06-04T04:21:42;4.65;;;3.30;;
69856;SDS011;57147;53.582;10.112;2023-06-04T04:26:45;4.55;;;2.97;;
69856;SDS011;57147;53.582;10.112;2023-06-04T04:31:46;5.82;;;3.22;;
69856;SDS011;57147;53.582;10.112;2023-06-04T04:36:46;3.42;;;2.95;;
69856;SDS011;57147;53.582;10.112;2023-06-04T04:41:49;4.03;;;3.33;;
69856;SDS011;57147;53.582;10.112;2023-06-04T04:46:50;4.10;;;2.95;;
69856;SDS011;57147;53.582;10.112;2023-06-04T04:51:51;3.35;;;2.45;;
69856;SDS011;57147;53.582;10.112;2023-06-04T04:56:54;5.60;;;4.32;;
69856;SDS011;57147;53.582;10.112;2023-06-04T05:01:54;4.28;;;3.88;;
69856;SDS011;57147;53.582;10.112;2023-06-04T05:06:55;2.38;;;1.23;;
69856;SDS011;57147;53.582;10.112;2023-06-04T05:11:58;7.03;;;3.17;;
69856;SDS011;57147;53.582;10.112;2023-06-04T05:16:59;6.45;;;3.13;;
69856;SDS011;57147;53.582;10.112;2023-06-04T05:21:59;6.78;;;2.60;;
69856;SDS011;57147;53.582;10.112;2023-06-04T05:27:03;4.95;;;2.83;;
69856;SDS011;57147;53.582;10.112;2023-06-04T05:32:04;6.93;;;2.88;;
69856;SDS011;57147;53.582;10.112;2023-06-04T05:37:04;7.43;;;3.65;;
69856;SDS011;57147;53.582;10.112;2023-06-04T05:42:08;4.40;;;3.22;;
69856;SDS011;57147;53.582;10.112;2023-06-04T05:47:08;6.22;;;2.80;;
69856;SDS011;57147;53.582;10.112;2023-06-04T05:52:09;5.97;;;2.92;;
69856;SDS011;57147;53.582;10.112;2023-06-04T05:57:12;6.43;;;2.13;;
69856;SDS011;57147;53.582;10.112;2023-06-04T06:02:13;5.35;;;2.72;;
69856;SDS011;57147;53.582;10.112;2023-06-04T06:07:13;5.30;;;3.72;;
69856;SDS011;57147;53.582;10.112;2023-06-04T06:12:17;5.45;;;2.55;;
69856;SDS011;57147;53.582;10.112;2023-06-04T06:17:17;5.15;;;2.22;;
69856;SDS011;57147;53.582;10.112;2023-06-04T06:22:18;4.97;;;3.28;;
69856;SDS011;57147;53.582;10.112;2023-06-04T06:27:21;5.40;;;2.30;;
69856;SDS011;57147;53.582;10.112;2023-06-04T06:32:21;4.65;;;3.17;;
69856;SDS011;57147;53.582;10.112;2023-06-04T06:37:23;6.65;;;3.45;;
69856;SDS011;57147;53.582;10.112;2023-06-04T06:42:26;5.72;;;3.30;;
69856;SDS011;57147;53.582;10.112;2023-06-04T06:47:32;4.15;;;1.33;;
69856;SDS011;57147;53.582;10.112;2023-06-04T06:52:33;3.80;;;2.25;;
69856;SDS011;57147;53.582;10.112;2023-06-04T06:57:36;6.47;;;2.80;;
69856;SDS011;57147;53.582;10.112;2023-06-04T07:02:37;6.65;;;2.13;;
69856;SDS011;57147;53.582;10.112;2023-06-04T07:07:37;4.07;;;2.20;;
69856;SDS011;57147;53.582;10.112;2023-06-04T07:12:40;5.03;;;2.28;;
69856;SDS011;57147;53.582;10.112;2023-06-04T07:17:41;5.28;;;1.25;;
69856;SDS011;57147;53.582;10.112;2023-06-04T07:22:42;3.03;;;2.03;;
69856;SDS011;57147;53.582;10.112;2023-06-04T07:27:45;3.75;;;2.05;;
69856;SDS011;57147;53.582;10.112;2023-06-04T07:32:48;5.15;;;2.60;;
69856;SDS011;57147;53.582;10.112;2023-06-04T07:37:48;3.85;;;2.20;;
69856;SDS011;57147;53.582;10.112;2023-06-04T07:42:52;4.38;;;3.28;;
69856;SDS011;57147;53.582;10.112;2023-06-04T07:47:52;3.08;;;2.00;;
69856;SDS011;57147;53.582;10.112;2023-06-04T07:52:53;2.60;;;2.00;;
69856;SDS011;57147;53.582;10.112;2023-06-04T07:57:56;3.75;;;1.27;;
69856;SDS011;57147;53.582;10.112;2023-06-04T08:02:57;6.68;;;2.65;;
69856;SDS011;57147;53.582;10.112;2023-06-04T08:07:57;5.75;;;2.67;;
69856;SDS011;57147;53.582;10.112;2023-06-04T08:13:00;5.80;;;1.83;;
69856;SDS011;57147;53.582;10.112;2023-06-04T08:18:01;7.28;;;4.53;;
69856;SDS011;57147;53.582;10.112;2023-06-04T08:23:02;4.35;;;2.15;;
69856;SDS011;57147;53.582;10.112;2023-06-04T08:28:05;4.28;;;2.22;;
69856;SDS011;57147;53.582;10.112;2023-06-04T08:33:06;3.72;;;2.00;;
69856;SDS011;57147;53.582;10.112;2023-06-04T08:38:06;5.35;;;3.30;;
69856;SDS011;57147;53.582;10.112;2023-06-04T08:43:09;4.82;;;1.58;;
69856;SDS011;57147;53.582;10.112;2023-06-04T08:48:10;4.10;;;2.13;;
69856;SDS011;57147;53.582;10.112;2023-06-04T08:53:12;4.32;;;2.58;;
69856;SDS011;57147;53.582;10.112;2023-06-04T08:58:18;3.00;;;1.75;;
69856;SDS011;57147;53.582;10.112;2023-06-04T09:08:20;6.45;;;2.67;;
69856;SDS011;57147;53.582;10.112;2023-06-04T09:13:26;3.50;;;2.33;;
69856;SDS011;57147;53.582;10.112;2023-06-04T09:18:31;4.80;;;3.03;;
69856;SDS011;57147;53.582;10.112;2023-06-04T09:23:31;8.10;;;5.38;;
69856;SDS011;57147;53.582;10.112;2023-06-04T09:28:37;2.85;;;1.15;;
69856;SDS011;57147;53.582;10.112;2023-06-04T09:33:43;4.38;;;2.50;;
69856;SDS011;57147;53.582;10.112;2023-06-04T09:43:48;3.15;;;1.23;;
69856;SDS011;57147;53.582;10.112;2023-06-04T09:48:58;2.47;;;0.73;;
69856;SDS011;57147;53.582;10.112;2023-06-04T09:54:00;9.02;;;5.10;;
69856;SDS011;57147;53.582;10.112;2023-06-04T09:59:05;3.35;;;2.13;;
69856;SDS011;57147;53.582;10.112;2023-06-04T10:04:08;2.92;;;2.40;;
69856;SDS011;57147;53.582;10.112;2023-06-04T10:09:09;2.95;;;1.83;;
69856;SDS011;57147;53.582;10.112;2023-06-04T10:14:16;2.70;;;1.52;;
69856;SDS011;57147;53.582;10.112;2023-06-04T10:19:21;4.38;;;2.42;;
69856;SDS011;57147;53.582;10.112;2023-06-04T10:24:22;6.35;;;1.75;;
69856;SDS011;57147;53.582;10.112;2023-06-04T10:29:26;4.18;;;2.78;;
69856;SDS011;57147;53.582;10.112;2023-06-04T10:34:27;3.00;;;1.40;;
69856;SDS011;57147;53.582;10.112;2023-06-04T10:39:29;1.55;;;0.60;;
69856;SDS011;57147;53.582;10.112;2023-06-04T10:44:45;2.92;;;1.95;;
69856;SDS011;57147;53.582;10.112;2023-06-04T10:49:46;2.50;;;1.45;;
69856;SDS011;57147;53.582;10.112;2023-06-04T10:54:47;3.70;;;2.63;;
69856;SDS011;57147;53.582;10.112;2023-06-04T10:59:57;4.85;;;1.00;;
69856;SDS011;57147;53.582;10.112;2023-06-04T11:09:59;4.43;;;2.58;;
69856;SDS011;57147;53.582;10.112;2023-06-04T11:15:03;2.75;;;0.65;;
69856;SDS011;57147;53.582;10.112;2023-06-04T11:25:15;1.75;;;1.42;;
69856;SDS011;57147;53.582;10.112;2023-06-04T11:30:19;3.05;;;1.38;;
69856;SDS011;57147;53.582;10.112;2023-06-04T11:35:24;3.28;;;1.55;;
69856;SDS011;57147;53.582;10.112;2023-06-04T11:40:25;1.98;;;1.80;;
69856;SDS011;57147;53.582;10.112;2023-06-04T11:45:28;3.00;;;1.08;;
69856;SDS011;57147;53.582;10.112;2023-06-04T11:50:29;3.13;;;1.95;;
69856;SDS011;57147;53.582;10.112;2023-06-04T11:55:31;4.18;;;2.45;;
69856;SDS011;57147;53.582;10.112;2023-06-04T12:00:35;4.10;;;1.88;;
69856;SDS011;57147;53.582;10.112;2023-06-04T12:10:36;3.93;;;1.67;;
69856;SDS011;57147;53.582;10.112;2023-06-04T12:15:40;7.00;;;5.25;;
69856;SDS011;57147;53.582;10.112;2023-06-04T12:20:41;4.63;;;2.33;;
69856;SDS011;57147;53.582;10.112;2023-06-04T12:25:41;3.45;;;1.27;;
69856;SDS011;57147;53.582;10.112;2023-06-04T12:30:45;3.30;;;1.80;;
69856;SDS011;57147;53.582;10.112;2023-06-04T12:35:45;3.58;;;1.88;;
69856;SDS011;57147;53.582;10.112;2023-06-04T12:40:46;2.35;;;0.75;;
69856;SDS011;57147;53.582;10.112;2023-06-04T12:45:49;4.65;;;1.95;;
69856;SDS011;57147;53.582;10.112;2023-06-04T12:50:50;2.15;;;1.48;;
69856;SDS011;57147;53.582;10.112;2023-06-04T12:55:50;2.90;;;1.55;;
69856;SDS011;57147;53.582;10.112;2023-06-04T13:00:54;3.72;;;1.83;;
69856;SDS011;57147;53.582;10.112;2023-06-04T13:05:54;2.50;;;1.65;;
69856;SDS011;57147;53.582;10.112;2023-06-04T13:10:55;2.55;;;1.63;;
69856;SDS011;57147;53.582;10.112;2023-06-04T13:15:58;4.03;;;2.28;;
69856;SDS011;57147;53.582;10.112;2023-06-04T13:20:59;4.10;;;1.65;;
69856;SDS011;57147;53.582;10.112;2023-06-04T13:25:59;2.35;;;2.15;;
69856;SDS011;57147;53.582;10.112;2023-06-04T13:31:02;3.05;;;1.90;;
69856;SDS011;57147;53.582;10.112;2023-06-04T13:36:03;2.30;;;1.45;;
69856;SDS011;57147;53.582;10.112;2023-06-04T13:41:05;3.35;;;1.92;;
69856;SDS011;57147;53.582;10.112;2023-06-04T13:46:08;2.50;;;1.65;;
69856;SDS011;57147;53.582;10.112;2023-06-04T13:51:08;2.75;;;2.05;;
69856;SDS011;57147;53.582;10.112;2023-06-04T13:56:09;3.10;;;1.38;;
69856;SDS011;57147;53.582;10.112;2023-06-04T14:01:12;1.63;;;0.70;;
69856;SDS011;57147;53.582;10.112;2023-06-04T14:06:13;3.08;;;1.35;;
69856;SDS011;57147;53.582;10.112;2023-06-04T14:11:14;3.03;;;0.47;;
69856;SDS011;57147;53.582;10.112;2023-06-04T14:16:17;2.83;;;1.10;;
69856;SDS011;57147;53.582;10.112;2023-06-04T14:21:17;3.40;;;1.77;;
69856;SDS011;57147;53.582;10.112;2023-06-04T14:26:18;2.20;;;1.52;;
69856;SDS011;57147;53.582;10.112;2023-06-04T14:31:21;3.78;;;1.75;;
69856;SDS011;57147;53.582;10.112;2023-06-04T14:41:23;2.27;;;1.70;;
69856;SDS011;57147;53.582;10.112;2023-06-04T14:46:26;2.45;;;1.35;;
69856;SDS011;57147;53.582;10.112;2023-06-04T14:51:26;2.80;;;1.45;;
69856;SDS011;57147;53.582;10.112;2023-06-04T14:56:27;3.72;;;2.30;;
69856;SDS011;57147;53.582;10.112;2023-06-04T15:01:30;2.63;;;1.27;;
69856;SDS011;57147;53.582;10.112;2023-06-04T15:06:31;4.03;;;1.58;;
69856;SDS011;57147;53.582;10.112;2023-06-04T15:11:32;3.75;;;1.48;;
69856;SDS011;57147;53.582;10.112;2023-06-04T15:16:35;2.33;;;1.42;;
69856;SDS011;57147;53.582;10.112;2023-06-04T15:21:36;3.80;;;1.80;;
69856;SDS011;57147;53.582;10.112;2023-06-04T15:26:36;4.30;;;1.60;;
69856;SDS011;57147;53.582;10.112;2023-06-04T15:31:40;1.17;;;0.30;;
69856;SDS011;57147;53.582;10.112;2023-06-04T15:36:40;2.30;;;1.45;;
69856;SDS011;57147;53.582;10.112;2023-06-04T15:41:41;2.53;;;1.40;;
69856;SDS011;57147;53.582;10.112;2023-06-04T15:46:44;3.60;;;1.63;;
69856;SDS011;57147;53.582;10.112;2023-06-04T15:51:45;2.60;;;1.55;;
69856;SDS011;57147;53.582;10.112;2023-06-04T15:56:47;1.85;;;1.15;;
69856;SDS011;57147;53.582;10.112;2023-06-04T16:01:50;3.25;;;1.45;;
69856;SDS011;57147;53.582;10.112;2023-06-04T16:06:51;2.75;;;1.30;;
69856;SDS011;57147;53.582;10.112;2023-06-04T16:11:52;2.85;;;1.85;;
69856;SDS011;57147;53.582;10.112;2023-06-04T16:16:55;2.10;;;1.48;;
69856;SDS011;57147;53.582;10.112;2023-06-04T16:21:56;2.50;;;1.48;;
69856;SDS011;57147;53.582;10.112;2023-06-04T16:26:57;2.15;;;1.15;;
69856;SDS011;57147;53.582;10.112;2023-06-04T16:32:01;3.15;;;1.23;;
69856;SDS011;57147;53.582;10.112;2023-06-04T16:37:01;2.47;;;1.00;;
69856;SDS011;57147;53.582;10.112;2023-06-04T16:42:02;2.22;;;1.40;;
69856;SDS011;57147;53.582;10.112;2023-06-04T16:47:06;5.75;;;2.08;;
69856;SDS011;57147;53.582;10.112;2023-06-04T16:52:07;2.88;;;1.45;;
69856;SDS011;57147;53.582;10.112;2023-06-04T16:57:07;2.28;;;1.65;;
69856;SDS011;57147;53.582;10.112;2023-06-04T17:02:11;3.05;;;1.75;;
69856;SDS011;57147;53.582;10.112;2023-06-04T17:07:12;3.28;;;1.20;;
69856;SDS011;57147;53.582;10.112;2023-06-04T17:12:12;2.72;;;1.65;;
69856;SDS011;57147;53.582;10.112;2023-06-04T17:17:15;4.28;;;1.90;;
69856;SDS011;57147;53.582;10.112;2023-06-04T17:22:16;2.17;;;1.38;;
69856;SDS011;57147;53.582;10.112;2023-06-04T17:27:17;2.75;;;2.55;;
69856;SDS011;57147;53.582;10.112;2023-06-04T17:32:20;2.75;;;2.00;;
69856;SDS011;57147;53.582;10.112;2023-06-04T17:37:21;2.72;;;2.53;;
69856;SDS011;57147;53.582;10.112;2023-06-04T17:42:21;2.63;;;1.77;;
69856;SDS011;57147;53.582;10.112;2023-06-04T17:47:25;2.92;;;1.85;;
69856;SDS011;57147;53.582;10.112;2023-06-04T17:52:25;3.60;;;2.70;;
69856;SDS011;57147;53.582;10.112;2023-06-04T17:57:28;3.60;;;1.77;;
69856;SDS011;57147;53.582;10.112;2023-06-04T18:02:31;2.72;;;2.13;;
69856;SDS011;57147;53.582;10.112;2023-06-04T18:07:32;2.88;;;1.38;;
69856;SDS011;57147;53.582;10.112;2023-06-04T18:12:33;2.50;;;2.28;;
69856;SDS011;57147;53.582;10.112;2023-06-04T18:17:37;2.33;;;1.80;;
69856;SDS011;57147;53.582;10.112;2023-06-04T18:22:39;2.75;;;2.38;;
69856;SDS011;57147;53.582;10.112;2023-06-04T18:27:40;3.88;;;2.90;;
69856;SDS011;57147;53.582;10.112;2023-06-04T18:32:43;3.65;;;3.35;;
69856;SDS011;57147;53.582;10.112;2023-06-04T18:37:44;4.78;;;2.40;;
69856;SDS011;57147;53.582;10.112;2023-06-04T18:42:44;2.83;;;2.15;;
69856;SDS011;57147;53.582;10.112;2023-06-04T18:47:50;1.83;;;1.70;;
69856;SDS011;57147;53.582;10.112;2023-06-04T18:52:53;3.67;;;1.50;;
69856;SDS011;57147;53.582;10.112;2023-06-04T18:57:53;2.10;;;1.83;;
69856;SDS011;57147;53.582;10.112;2023-06-04T19:02:57;3.38;;;2.17;;
69856;SDS011;57147;53.582;10.112;2023-06-04T19:07:57;2.95;;;1.85;;
69856;SDS011;57147;53.582;10.112;2023-06-04T19:12:58;4.90;;;1.58;;
69856;SDS011;57147;53.582;10.112;2023-06-04T19:18:01;2.90;;;1.80;;
69856;SDS011;57147;53.582;10.112;2023-06-04T19:23:02;3.20;;;1.45;;
69856;SDS011;57147;53.582;10.112;2023-06-04T19:28:03;3.65;;;1.90;;
69856;SDS011;57147;53.582;10.112;2023-06-04T19:33:06;4.38;;;2.08;;
69856;SDS011;57147;53.582;10.112;2023-06-04T19:38:07;2.47;;;1.60;;
69856;SDS011;57147;53.582;10.112;2023-06-04T19:48:41;2.85;;;2.50;;
69856;SDS011;57147;53.582;10.112;2023-06-04T19:53:41;3.40;;;2.22;;
69856;SDS011;57147;53.582;10.112;2023-06-04T19:58:42;6.65;;;3.25;;
69856;SDS011;57147;53.582;10.112;2023-06-04T20:03:45;3.50;;;2.78;;
69856;SDS011;57147;53.582;10.112;2023-06-04T20:08:46;4.95;;;2.13;;
69856;SDS011;57147;53.582;10.112;2023-06-04T20:13:47;4.82;;;3.45;;
69856;SDS011;57147;53.582;10.112;2023-06-04T20:18:50;6.03;;;3.38;;
69856;SDS011;57147;53.582;10.112;2023-06-04T20:23:51;10.02;;;6.47;;
69856;SDS011;57147;53.582;10.112;2023-06-04T20:28:51;8.05;;;6.10;;
69856;SDS011;57147;53.582;10.112;2023-06-04T20:33:55;5.90;;;3.35;;
69856;SDS011;57147;53.582;10.112;2023-06-04T20:38:55;4.75;;;3.13;;
69856;SDS011;57147;53.582;10.112;2023-06-04T20:43:56;5.15;;;3.47;;
69856;SDS011;57147;53.582;10.112;2023-06-04T20:48:59;3.88;;;2.85;;
69856;SDS011;57147;53.582;10.112;2023-06-04T20:54:00;4.07;;;3.00;;
69856;SDS011;57147;53.582;10.112;2023-06-04T20:59:00;4.80;;;3.25;;
69856;SDS011;57147;53.582;10.112;2023-06-04T21:04:04;9.45;;;5.10;;
69856;SDS011;57147;53.582;10.112;2023-06-04T21:09:05;4.45;;;3.95;;
69856;SDS011;57147;53.582;10.112;2023-06-04T21:14:06;6.65;;;3.38;;
69856;SDS011;57147;53.582;10.112;2023-06-04T21:19:09;8.10;;;4.95;;
69856;SDS011;57147;53.582;10.112;2023-06-04T21:24:10;4.93;;;2.90;;
69856;SDS011;57147;53.582;10.112;2023-06-04T21:29:10;5.40;;;2.83;;
69856;SDS011;57147;53.582;10.112;2023-06-04T21:34:13;5.65;;;3.15;;
69856;SDS011;57147;53.582;10.112;2023-06-04T21:39:14;3.85;;;2.60;;
69856;SDS011;57147;53.582;10.112;2023-06-04T21:44:15;8.95;;;6.18;;
69856;SDS011;57147;53.582;10.112;2023-06-04T21:49:18;5.15;;;3.83;;
69856;SDS011;57147;53.582;10.112;2023-06-04T21:54:19;6.47;;;3.80;;
69856;SDS011;57147;53.582;10.112;2023-06-04T21:59:19;4.75;;;3.38;;
69856;SDS011;57147;53.582;10.112;2023-06-04T22:04:23;6.20;;;4.10;;
69856;SDS011;57147;53.582;10.112;2023-06-04T22:09:23;5.38;;;3.28;;
69856;SDS011;57147;53.582;10.112;2023-06-04T22:14:24;10.57;;;7.13;;
69856;SDS011;57147;53.582;10.112;2023-06-04T22:19:27;13.13;;;7.22;;
69856;SDS011;57147;53.582;10.112;2023-06-04T22:24:28;8.95;;;4.75;;
69856;SDS011;57147;53.582;10.112;2023-06-04T22:29:28;13.45;;;6.80;;
69856;SDS011;57147;53.582;10.112;2023-06-04T22:34:31;6.50;;;4.45;;
69856;SDS011;57147;53.582;10.112;2023-06-04T22:39:32;6.20;;;4.63;;
69856;SDS011;57147;53.582;10.112;2023-06-04T22:44:32;5.47;;;3.55;;
69856;SDS011;57147;53.582;10.112;2023-06-04T22:49:36;6.47;;;4.65;;
69856;SDS011;57147;53.582;10.112;2023-06-04T22:54:36;7.03;;;5.10;;
69856;SDS011;57147;53.582;10.112;2023-06-04T22:59:37;7.55;;;5.50;;
69856;SDS011;57147;53.582;10.112;2023-06-04T23:04:40;6.78;;;4.88;;
69856;SDS011;57147;53.582;10.112;2023-06-04T23:09:43;6.65;;;5.13;;
69856;SDS011;57147;53.582;10.112;2023-06-04T23:14:43;7.13;;;4.22;;
69856;SDS011;57147;53.582;10.112;2023-06-04T23:19:47;8.25;;;4.38;;
69856;SDS011;57147;53.582;10.112;2023-06-04T23:24:47;7.07;;;3.88;;
69856;SDS011;57147;53.582;10.112;2023-06-04T23:29:48;4.18;;;3.28;;
69856;SDS011;57147;53.582;10.112;2023-06-04T23:34:51;5.88;;;4.60;;
69856;SDS011;57147;53.582;10.112;2023-06-04T23:39:52;8.50;;;3.97;;
69856;SDS011;57147;53.582;10.112;2023-06-04T23:44:55;4.85;;;3.38;;
69856;SDS011;57147;53.582;10.112;2023-06-04T23:49:59;3.50;;;3.10;;
69856;SDS011;57147;53.582;10.112;2023-06-04T23:54:59;4.32;;;3.88;;
